Time;durP1;ratioP1;P1;durP2;ratioP2;P2;SDS_P1;SDS_P2;PMS_P1;PMS_P2;Temp;Humidity;BMP_temperature;BMP_pressure;BME280_temperature;BME280_humidity;BME280_pressure;Samples;Min_cycle;Max_cycle;Signal;HPM_P1;HPM_P2
2022/11/27 00:02:20;;;;;;;3.20;1.75;;;10.00;70.90;;;;;;2370563;53;20946;-76
2022/11/27 00:04:46;;;;;;;3.42;1.50;;;10.00;70.90;;;;;;2371195;53;20950;-73
2022/11/27 00:07:13;;;;;;;3.70;1.60;;;10.00;70.80;;;;;;2364098;54;20967;-74
2022/11/27 00:09:39;;;;;;;3.50;1.37;;;9.90;71.80;;;;;;2351101;54;20990;-76
2022/11/27 00:12:06;;;;;;;3.62;1.30;;;9.90;71.80;;;;;;2371158;53;20966;-76
2022/11/27 00:14:32;;;;;;;2.35;1.15;;;9.90;71.60;;;;;;2371000;53;20946;-76
2022/11/27 00:16:59;;;;;;;2.20;0.95;;;9.80;71.50;;;;;;2370957;53;20938;-75
2022/11/27 00:19:26;;;;;;;3.42;1.60;;;9.80;71.40;;;;;;2371277;53;20986;-73
2022/11/27 00:21:52;;;;;;;2.72;1.30;;;9.70;71.30;;;;;;2404375;52;20993;-74
2022/11/27 00:24:18;;;;;;;2.75;1.20;;;9.70;71.10;;;;;;2370549;53;21026;-76
2022/11/27 00:26:45;;;;;;;2.67;1.08;;;9.60;71.00;;;;;;2624040;52;20902;-73
2022/11/27 00:29:11;;;;;;;2.97;1.30;;;9.60;71.10;;;;;;2371699;53;21002;-75
2022/11/27 00:31:38;;;;;;;3.08;1.40;;;9.50;71.00;;;;;;2370852;53;21598;-75
2022/11/27 00:34:07;;;;;;;2.80;1.20;;;9.50;71.10;;;;;;2371567;53;20995;-74
2022/11/27 00:36:34;;;;;;;4.75;2.20;;;9.40;71.70;;;;;;2436829;52;21735;-75
2022/11/27 00:39:00;;;;;;;3.50;1.80;;;9.40;71.10;;;;;;2370456;53;20997;-76
2022/11/27 00:41:28;;;;;;;4.37;1.80;;;9.40;71.40;;;;;;2369906;53;20943;-74
2022/11/27 00:43:54;;;;;;;3.22;1.80;;;9.30;71.50;;;;;;2371337;53;20967;-73
2022/11/27 00:46:23;;;;;;;4.87;2.05;;;9.30;71.70;;;;;;2370821;53;21487;-76
2022/11/27 00:48:52;;;;;;;3.35;1.73;;;9.20;71.70;;;;;;2371826;53;21435;-73
2022/11/27 00:51:22;;;;;;;5.37;2.47;;;9.20;71.80;;;;;;2371387;53;20926;-76
2022/11/27 00:53:48;;;;;;;4.43;2.10;;;9.20;71.90;;;;;;2371189;53;20946;-74
2022/11/27 00:56:19;;;;;;;5.22;2.25;;;9.20;72.00;;;;;;2355323;52;1741314;-74
2022/11/27 00:58:46;;;;;;;4.12;2.00;;;9.20;72.10;;;;;;2371391;53;20922;-75
2022/11/27 01:01:26;;;;;;;4.05;2.20;;;9.10;72.10;;;;;;2371169;53;20990;-72
2022/11/27 01:03:53;;;;;;;4.12;2.10;;;9.10;72.10;;;;;;2371075;53;20963;-73
2022/11/27 01:06:19;;;;;;;3.70;2.25;;;9.10;72.20;;;;;;2353412;53;20918;-74
2022/11/27 01:08:46;;;;;;;4.80;2.50;;;9.10;72.20;;;;;;2370681;53;21406;-73
2022/11/27 01:11:17;;;;;;;4.55;2.42;;;9.00;72.20;;;;;;2371490;53;20930;-75
2022/11/27 01:13:43;;;;;;;4.45;2.22;;;9.00;72.20;;;;;;2534736;52;20918;-73
2022/11/27 01:16:19;;;;;;;4.55;2.05;;;9.00;72.30;;;;;;2370939;53;20934;-75
2022/11/27 01:18:46;;;;;;;4.72;2.15;;;9.00;72.20;;;;;;2375115;53;20932;-73
2022/11/27 01:21:13;;;;;;;4.65;2.08;;;9.00;72.40;;;;;;2352498;53;21669;-73
2022/11/27 01:23:39;;;;;;;3.47;1.80;;;9.00;72.40;;;;;;2622701;52;21912;-76
2022/11/27 01:26:07;;;;;;;4.12;2.10;;;8.90;72.30;;;;;;2377471;52;20891;-74
2022/11/27 01:28:33;;;;;;;4.22;1.70;;;8.90;72.30;;;;;;2346259;53;20956;-75
2022/11/27 01:31:07;;;;;;;4.62;2.05;;;8.90;72.30;;;;;;2607534;52;20963;-76
2022/11/27 01:33:34;;;;;;;3.70;1.92;;;8.90;72.20;;;;;;2350877;53;20974;-74
2022/11/27 01:36:02;;;;;;;3.95;1.85;;;8.90;72.30;;;;;;2371092;53;20955;-72
2022/11/27 01:38:29;;;;;;;3.90;1.65;;;8.90;72.30;;;;;;2370322;53;20958;-75
2022/11/27 01:40:59;;;;;;;4.53;1.80;;;8.90;72.30;;;;;;2370890;53;20963;-74
2022/11/27 01:43:44;;;;;;;3.67;1.80;;;8.90;72.20;;;;;;2370198;53;20934;-76
2022/11/27 01:46:35;;;;;;;3.55;1.80;;;8.90;72.00;;;;;;2371047;53;20946;-74
2022/11/27 01:49:23;;;;;;;2.87;1.50;;;8.80;71.80;;;;;;2371103;53;20926;-73
2022/11/27 01:52:01;;;;;;;4.03;1.80;;;8.80;71.50;;;;;;2370151;53;20978;-76
2022/11/27 01:54:32;;;;;;;2.95;1.52;;;8.80;71.70;;;;;;2370333;53;20990;-74
2022/11/27 01:57:04;;;;;;;3.15;1.73;;;8.80;71.80;;;;;;2367091;53;20956;-74
2022/11/27 01:59:31;;;;;;;4.37;1.70;;;8.70;71.60;;;;;;2356460;53;21053;-73
2022/11/27 02:01:58;;;;;;;4.37;2.12;;;8.70;71.70;;;;;;2370938;53;20930;-76
2022/11/27 02:04:24;;;;;;;4.50;2.47;;;8.60;71.70;;;;;;2370624;53;21057;-74
2022/11/27 02:06:50;;;;;;;4.22;2.15;;;8.60;71.80;;;;;;2433053;52;21688;-76
2022/11/27 02:09:17;;;;;;;4.12;2.35;;;8.60;71.90;;;;;;2371389;53;20911;-74
2022/11/27 02:12:23;;;;;;;4.97;2.53;;;8.60;71.90;;;;;;2371166;53;20965;-73
2022/11/27 02:18:26;;;;;;;4.70;2.37;;;8.50;71.70;;;;;;2369868;53;21454;-75
2022/11/27 02:21:36;;;;;;;4.15;1.98;;;8.50;71.10;;;;;;2623889;52;21435;-74
2022/11/27 02:25:41;;;;;;;4.00;2.10;;;8.50;71.60;;;;;;2371258;53;21733;-76
2022/11/27 02:29:20;;;;;;;4.30;1.95;;;8.40;71.70;;;;;;2370862;53;20973;-73
2022/11/27 02:32:09;;;;;;;3.97;1.73;;;8.40;71.90;;;;;;2343261;53;21052;-73
2022/11/27 02:35:05;;;;;;;3.83;1.87;;;8.40;72.10;;;;;;2559021;52;21476;-75
2022/11/27 02:38:22;;;;;;;3.20;1.65;;;8.40;72.10;;;;;;2589389;52;21774;-73
2022/11/27 02:41:25;;;;;;;4.75;2.00;;;8.30;71.70;;;;;;2353953;53;21716;-76
2022/11/27 02:43:52;;;;;;;4.20;2.05;;;8.30;72.00;;;;;;2353150;54;20948;-75
2022/11/27 02:46:18;;;;;;;3.40;1.83;;;8.30;72.40;;;;;;2440010;53;20953;-75
2022/11/27 02:49:06;;;;;;;3.87;2.03;;;8.20;72.40;;;;;;2343255;53;20977;-73
2022/11/27 02:51:38;;;;;;;5.22;2.33;;;8.30;72.50;;;;;;2358600;52;20968;-74
2022/11/27 02:54:06;;;;;;;5.60;2.35;;;8.30;72.40;;;;;;2344922;53;21006;-72
2022/11/27 02:56:33;;;;;;;5.00;2.25;;;8.20;72.30;;;;;;2587628;52;20974;-73
2022/11/27 02:59:01;;;;;;;4.12;1.92;;;8.20;72.30;;;;;;2343046;53;20919;-73
2022/11/27 03:01:31;;;;;;;4.50;2.30;;;8.20;72.30;;;;;;2591594;52;21496;-74
2022/11/27 03:03:58;;;;;;;6.07;3.28;;;8.20;72.30;;;;;;2345060;54;20981;-76
2022/11/27 03:06:32;;;;;;;6.10;3.05;;;8.20;72.40;;;;;;2341711;54;20929;-75
2022/11/27 03:09:07;;;;;;;5.28;2.35;;;8.20;72.30;;;;;;2368432;53;20933;-73
2022/11/27 03:11:33;;;;;;;3.78;1.77;;;8.20;72.20;;;;;;2367801;53;20946;-73
2022/11/27 03:14:05;;;;;;;3.20;1.50;;;8.10;71.90;;;;;;2366571;53;20981;-72
2022/11/27 03:17:03;;;;;;;3.62;1.40;;;8.10;71.70;;;;;;2362140;53;20925;-74
2022/11/27 03:19:54;;;;;;;1.87;0.80;;;8.10;71.30;;;;;;2341552;54;20944;-76
2022/11/27 03:22:21;;;;;;;2.40;1.00;;;8.00;71.30;;;;;;2588131;52;21509;-75
2022/11/27 03:24:48;;;;;;;1.92;0.82;;;8.00;71.40;;;;;;2420651;52;20944;-73
2022/11/27 03:27:23;;;;;;;2.50;0.82;;;8.00;71.40;;;;;;2588419;52;20933;-73
2022/11/27 03:30:04;;;;;;;2.25;0.82;;;7.90;71.20;;;;;;2346103;54;20936;-74
2022/11/27 03:32:30;;;;;;;1.73;0.60;;;7.90;70.90;;;;;;2345688;53;21011;-76
2022/11/27 03:34:56;;;;;;;2.12;0.90;;;7.90;71.10;;;;;;2367802;54;21030;-72
2022/11/27 03:37:23;;;;;;;2.65;0.93;;;7.80;70.90;;;;;;2427191;53;21021;-75
2022/11/27 03:39:49;;;;;;;2.60;1.00;;;7.80;70.90;;;;;;2398191;53;20910;-75
2022/11/27 03:44:26;;;;;;;2.92;1.30;;;7.70;70.70;;;;;;2371265;53;20978;-73
2022/11/27 03:47:25;;;;;;;2.47;1.00;;;7.70;69.90;;;;;;2375847;52;20990;-73
2022/11/27 03:53:09;;;;;;;2.45;0.98;;;7.60;70.30;;;;;;2371151;53;21748;-73
2022/11/27 03:58:47;;;;;;;1.55;0.70;;;7.50;69.80;;;;;;2369783;53;22108;-73
2022/11/27 04:01:15;;;;;;;2.08;0.73;;;7.40;69.90;;;;;;2371030;53;20950;-73
2022/11/27 04:03:41;;;;;;;2.35;0.95;;;7.40;70.80;;;;;;2370498;53;21337;-72
2022/11/27 04:06:08;;;;;;;2.78;1.10;;;7.30;70.80;;;;;;2409988;52;20934;-73
2022/11/27 04:08:35;;;;;;;3.00;1.00;;;7.30;70.90;;;;;;2371157;53;20923;-75
2022/11/27 04:11:01;;;;;;;2.90;1.17;;;7.20;70.90;;;;;;2623981;52;21683;-74
2022/11/27 04:13:28;;;;;;;2.62;1.02;;;7.20;71.00;;;;;;2370626;53;21471;-74
2022/11/27 04:15:54;;;;;;;3.72;1.02;;;7.20;71.30;;;;;;2513307;52;21391;-75
2022/11/27 04:18:21;;;;;;;1.90;0.90;;;7.20;71.40;;;;;;2623704;52;21491;-74
2022/11/27 04:20:47;;;;;;;2.17;0.93;;;7.20;71.40;;;;;;2623951;52;20935;-73
2022/11/27 04:23:14;;;;;;;3.25;0.90;;;7.10;71.40;;;;;;2520717;52;20902;-74
2022/11/27 04:25:40;;;;;;;2.35;0.98;;;7.10;71.40;;;;;;2432552;52;21013;-74
2022/11/27 04:28:07;;;;;;;2.03;0.80;;;7.10;71.40;;;;;;2352551;53;21923;-73
2022/11/27 04:30:35;;;;;;;2.12;0.90;;;7.10;71.50;;;;;;2384342;52;20934;-73
2022/11/27 04:33:02;;;;;;;2.92;1.12;;;7.10;71.60;;;;;;2371094;53;21046;-75
2022/11/27 04:35:29;;;;;;;2.22;1.05;;;7.10;71.70;;;;;;2559215;52;20934;-72
2022/11/27 04:37:58;;;;;;;2.83;1.05;;;7.10;71.70;;;;;;2370887;53;20973;-74
2022/11/27 04:40:25;;;;;;;3.30;1.15;;;7.00;71.60;;;;;;2370330;53;20913;-75
2022/11/27 04:42:51;;;;;;;2.50;1.10;;;7.00;71.70;;;;;;2624071;52;21518;-75
2022/11/27 04:45:17;;;;;;;2.83;1.20;;;7.10;71.80;;;;;;2364443;54;21096;-74
2022/11/27 04:47:44;;;;;;;2.75;1.35;;;7.10;71.70;;;;;;2370816;53;20977;-74
2022/11/27 04:50:10;;;;;;;1.92;0.93;;;7.00;71.60;;;;;;2355033;52;20921;-74
2022/11/27 04:52:37;;;;;;;2.62;1.23;;;7.00;71.60;;;;;;2411002;52;21905;-72
2022/11/27 04:55:07;;;;;;;3.30;1.40;;;7.00;71.70;;;;;;2510629;52;21016;-72
2022/11/27 04:57:34;;;;;;;2.70;1.27;;;7.10;71.80;;;;;;2343177;53;21008;-73
2022/11/27 05:00:00;;;;;;;2.95;1.17;;;7.00;71.80;;;;;;2590061;52;21012;-75
2022/11/27 05:02:27;;;;;;;3.03;1.25;;;7.00;71.80;;;;;;2479840;52;20969;-73
2022/11/27 05:04:54;;;;;;;2.42;1.10;;;7.00;71.80;;;;;;2433500;52;21433;-73
2022/11/27 05:07:20;;;;;;;2.87;1.10;;;7.00;71.90;;;;;;2350125;53;21874;-73
2022/11/27 05:09:46;;;;;;;2.17;1.00;;;7.00;71.90;;;;;;2336252;53;20945;-73
2022/11/27 05:12:13;;;;;;;2.25;1.10;;;7.00;71.90;;;;;;2358373;53;20887;-74
2022/11/27 05:14:40;;;;;;;2.67;1.25;;;7.00;72.00;;;;;;2401928;52;20963;-73
2022/11/27 05:17:07;;;;;;;3.22;1.25;;;7.00;72.00;;;;;;2362725;53;21373;-74
2022/11/27 05:19:33;;;;;;;2.80;1.27;;;7.00;71.90;;;;;;2612337;52;20914;-73
2022/11/27 05:22:00;;;;;;;2.70;1.20;;;7.00;71.90;;;;;;2470928;52;20951;-75
2022/11/27 05:24:27;;;;;;;2.62;1.20;;;7.00;71.90;;;;;;2354909;53;21273;-76
2022/11/27 05:26:53;;;;;;;2.62;1.23;;;7.00;71.90;;;;;;2371113;54;21324;-73
2022/11/27 05:29:21;;;;;;;2.50;1.10;;;7.00;71.90;;;;;;2624086;52;21433;-75
2022/11/27 05:31:47;;;;;;;3.45;1.37;;;7.00;71.90;;;;;;2370476;53;21774;-74
2022/11/27 05:34:13;;;;;;;2.75;1.30;;;7.00;72.10;;;;;;2386635;52;21486;-74
2022/11/27 05:36:40;;;;;;;3.25;1.40;;;7.00;72.10;;;;;;2624094;52;20890;-75
2022/11/27 05:39:06;;;;;;;2.50;1.20;;;7.10;72.20;;;;;;2565518;52;20942;-74
2022/11/27 05:41:34;;;;;;;3.95;1.30;;;7.10;72.20;;;;;;2395984;52;20918;-74
2022/11/27 05:44:00;;;;;;;3.65;1.73;;;7.10;72.30;;;;;;2458753;52;20986;-74
2022/11/27 05:46:27;;;;;;;3.17;1.33;;;7.00;72.20;;;;;;2370590;53;20998;-73
2022/11/27 05:48:53;;;;;;;4.72;2.03;;;7.10;72.40;;;;;;2465580;52;20965;-75
2022/11/27 05:51:23;;;;;;;3.45;1.95;;;7.10;72.40;;;;;;2371441;53;20942;-74
2022/11/27 05:53:50;;;;;;;4.32;1.92;;;7.10;72.40;;;;;;2385071;52;20938;-75
2022/11/27 05:56:17;;;;;;;4.03;1.77;;;7.10;72.40;;;;;;2370834;53;20945;-73
2022/11/27 05:58:45;;;;;;;3.25;1.52;;;7.10;72.40;;;;;;2623707;52;21841;-73
2022/11/27 06:01:11;;;;;;;3.85;1.70;;;7.20;72.50;;;;;;2370802;53;21093;-75
2022/11/27 06:03:38;;;;;;;4.72;2.42;;;7.20;72.50;;;;;;2373289;52;21025;-75
2022/11/27 06:06:06;;;;;;;4.60;2.00;;;7.20;72.40;;;;;;2371333;53;20986;-74
2022/11/27 06:08:32;;;;;;;4.70;2.25;;;7.20;72.40;;;;;;2370998;53;20922;-73
2022/11/27 06:11:39;;;;;;;4.93;2.40;;;7.10;72.20;;;;;;2371107;53;20990;-75
2022/11/27 06:14:09;;;;;;;5.07;2.62;;;7.10;72.20;;;;;;2623840;52;20930;-75
2022/11/27 06:16:35;;;;;;;4.68;2.30;;;7.20;72.30;;;;;;2370724;53;20926;-72
2022/11/27 06:19:02;;;;;;;4.90;2.00;;;7.20;72.40;;;;;;2624119;52;21214;-75
2022/11/27 06:21:28;;;;;;;4.15;2.30;;;7.20;72.40;;;;;;2370846;53;20942;-74
2022/11/27 06:23:55;;;;;;;4.47;1.98;;;7.20;72.30;;;;;;2623833;52;20890;-73
2022/11/27 06:26:26;;;;;;;4.07;1.92;;;7.20;72.30;;;;;;2517617;52;21479;-73
2022/11/27 06:28:55;;;;;;;5.30;2.22;;;7.20;72.30;;;;;;2525721;52;21001;-75
2022/11/27 06:31:24;;;;;;;3.80;1.92;;;7.20;72.20;;;;;;2370054;53;20947;-75
2022/11/27 06:33:51;;;;;;;3.62;1.67;;;7.20;72.30;;;;;;2595148;52;20954;-73
2022/11/27 06:36:18;;;;;;;6.43;2.58;;;7.20;72.30;;;;;;2370138;53;21432;-73
2022/11/27 06:38:44;;;;;;;5.87;2.30;;;7.20;72.40;;;;;;2622195;52;20974;-76
2022/11/27 06:41:15;;;;;;;4.47;2.20;;;7.20;72.50;;;;;;2370250;53;20974;-75
2022/11/27 06:43:41;;;;;;;4.78;2.22;;;7.20;72.50;;;;;;2622873;52;21716;-72
2022/11/27 06:46:14;;;;;;;4.45;2.42;;;7.20;72.40;;;;;;2369905;53;20970;-74
2022/11/27 06:48:42;;;;;;;4.55;2.50;;;7.20;72.30;;;;;;2622904;52;21407;-74
2022/11/27 06:51:10;;;;;;;4.72;2.22;;;7.20;72.30;;;;;;2623106;52;20946;-73
2022/11/27 06:53:39;;;;;;;5.53;2.42;;;7.20;72.30;;;;;;2622426;52;21151;-75
2022/11/27 06:56:08;;;;;;;4.32;2.70;;;7.20;72.40;;;;;;2370290;53;20975;-73
2022/11/27 06:58:35;;;;;;;5.20;2.37;;;7.20;72.50;;;;;;2623196;52;20922;-75
2022/11/27 07:01:06;;;;;;;4.72;2.30;;;7.20;72.60;;;;;;2370318;53;20937;-73
2022/11/27 07:03:34;;;;;;;5.70;2.65;;;7.20;72.70;;;;;;2522427;52;20954;-74
2022/11/27 07:06:05;;;;;;;5.12;2.85;;;7.20;72.70;;;;;;2369582;53;21073;-73
2022/11/27 07:08:31;;;;;;;5.60;2.85;;;7.30;72.90;;;;;;2369959;53;20922;-73
2022/11/27 07:11:40;;;;;;;5.20;2.37;;;7.30;72.90;;;;;;2623149;52;20990;-75
2022/11/27 07:14:06;;;;;;;4.93;2.53;;;7.30;73.60;;;;;;2594915;52;20970;-75
2022/11/27 07:16:34;;;;;;;4.82;2.58;;;7.30;73.00;;;;;;2622289;52;20930;-75
2022/11/27 07:19:05;;;;;;;5.72;3.33;;;7.30;73.10;;;;;;2622104;52;21494;-75
2022/11/27 07:21:32;;;;;;;6.05;3.28;;;7.40;73.20;;;;;;2370443;53;20958;-73
2022/11/27 07:24:00;;;;;;;4.75;2.75;;;7.40;73.30;;;;;;2467064;52;20982;-73
2022/11/27 07:26:27;;;;;;;5.03;2.65;;;7.40;73.30;;;;;;2370222;53;21708;-75
2022/11/27 07:28:55;;;;;;;5.82;2.70;;;7.50;73.40;;;;;;2371171;53;21001;-73
2022/11/27 07:31:26;;;;;;;4.97;2.45;;;7.50;73.40;;;;;;2370573;53;20902;-73
2022/11/27 07:33:53;;;;;;;8.85;4.10;;;7.50;73.40;;;;;;2509224;52;21050;-76
2022/11/27 07:36:22;;;;;;;12.23;5.90;;;7.50;73.40;;;;;;2363085;53;20931;-74
2022/11/27 07:38:50;;;;;;;9.30;4.68;;;7.50;73.30;;;;;;2358484;53;20990;-75
2022/11/27 07:41:16;;;;;;;7.03;3.78;;;7.60;73.30;;;;;;2622753;52;20930;-73
2022/11/27 07:43:43;;;;;;;6.03;3.17;;;7.60;73.30;;;;;;2593683;52;21425;-76
2022/11/27 07:46:18;;;;;;;6.20;3.22;;;7.60;73.30;;;;;;2622323;52;21375;-74
2022/11/27 07:48:45;;;;;;;5.65;3.60;;;7.60;73.20;;;;;;2411451;52;20934;-74
2022/11/27 07:51:14;;;;;;;7.37;4.90;;;7.60;73.30;;;;;;2370718;53;20974;-74
2022/11/27 07:53:40;;;;;;;7.87;3.80;;;7.60;73.40;;;;;;2622777;52;21010;-73
2022/11/27 07:56:10;;;;;;;5.93;3.22;;;7.70;73.50;;;;;;2370528;53;21475;-73
2022/11/27 07:58:37;;;;;;;5.45;2.97;;;7.70;73.50;;;;;;2370228;53;20930;-74
2022/11/27 08:01:09;;;;;;;5.18;3.00;;;7.70;73.40;;;;;;2370336;53;20954;-73
2022/11/27 08:03:35;;;;;;;;;;;7.70;73.40;;;;;;2372966;53;21434;-76
2022/11/27 08:06:03;;;;;;;4.70;2.50;;;7.80;72.70;;;;;;2571202;52;20137;-74
2022/11/27 08:08:30;;;;;;;6.35;3.08;;;7.80;73.30;;;;;;2458977;52;21013;-75
2022/11/27 08:10:56;;;;;;;5.22;2.70;;;7.80;73.30;;;;;;2623226;52;20926;-74
2022/11/27 08:13:22;;;;;;;5.85;3.03;;;7.80;73.30;;;;;;2368944;53;20939;-74
2022/11/27 08:15:49;;;;;;;7.95;4.22;;;7.80;73.30;;;;;;2351665;53;20899;-75
2022/11/27 08:18:15;;;;;;;7.20;3.33;;;7.80;73.50;;;;;;2369930;53;21780;-75
2022/11/27 08:20:42;;;;;;;7.12;3.67;;;7.90;73.70;;;;;;2370665;53;20898;-74
2022/11/27 08:23:08;;;;;;;9.45;4.12;;;7.90;73.70;;;;;;2445460;52;21391;-75
2022/11/27 08:25:39;;;;;;;5.55;3.05;;;7.90;73.80;;;;;;2371043;53;21033;-75
2022/11/27 08:28:05;;;;;;;5.22;2.72;;;7.90;73.80;;;;;;2370167;53;20966;-73
2022/11/27 08:30:31;;;;;;;4.18;2.30;;;8.00;73.90;;;;;;2577258;52;21495;-75
2022/11/27 08:32:58;;;;;;;4.90;2.30;;;8.00;73.80;;;;;;2369029;53;21009;-74
2022/11/27 08:35:24;;;;;;;4.05;2.35;;;8.00;73.80;;;;;;2622609;52;20954;-76
2022/11/27 08:37:51;;;;;;;5.07;2.50;;;8.10;73.80;;;;;;2370475;53;20927;-75
2022/11/27 08:40:17;;;;;;;4.40;2.30;;;8.10;73.80;;;;;;2370309;53;20957;-74
2022/11/27 08:42:45;;;;;;;5.25;2.47;;;8.10;73.80;;;;;;2370601;53;20927;-75
2022/11/27 08:45:11;;;;;;;4.20;2.10;;;8.20;73.90;;;;;;2370976;53;21501;-73
2022/11/27 08:47:38;;;;;;;4.18;2.22;;;8.20;74.00;;;;;;2369711;53;21792;-74
2022/11/27 08:50:06;;;;;;;4.75;2.58;;;8.20;73.90;;;;;;2370345;53;20930;-73
2022/11/27 08:52:32;;;;;;;5.35;3.05;;;8.30;74.00;;;;;;2509563;52;21010;-74
2022/11/27 08:54:59;;;;;;;5.90;3.05;;;8.30;74.10;;;;;;2370200;53;20906;-75
2022/11/27 08:57:26;;;;;;;5.62;3.03;;;8.30;74.20;;;;;;2623322;52;21455;-74
2022/11/27 08:59:52;;;;;;;6.18;3.00;;;8.30;74.30;;;;;;2370991;53;20942;-76
2022/11/27 09:02:20;;;;;;;5.85;3.00;;;8.40;74.40;;;;;;2428923;52;20910;-74
2022/11/27 09:04:50;;;;;;;4.75;2.35;;;8.40;74.50;;;;;;2370398;53;20947;-73
2022/11/27 09:07:16;;;;;;;4.95;2.30;;;8.50;74.60;;;;;;2371144;53;20981;-75
2022/11/27 09:09:46;;;;;;;4.78;2.42;;;8.50;74.60;;;;;;2369722;53;20930;-76
2022/11/27 09:12:12;;;;;;;3.92;2.00;;;8.60;74.80;;;;;;2623314;52;20979;-75
2022/11/27 09:14:42;;;;;;;4.90;2.47;;;8.60;74.80;;;;;;2370496;53;20977;-75
2022/11/27 09:17:09;;;;;;;3.97;1.80;;;8.70;74.90;;;;;;2370556;53;20958;-76
2022/11/27 09:19:35;;;;;;;6.05;2.12;;;8.70;75.00;;;;;;2622993;52;20929;-73
2022/11/27 09:22:05;;;;;;;4.43;2.37;;;8.80;75.10;;;;;;2370725;53;20902;-73
2022/11/27 09:24:31;;;;;;;6.35;2.47;;;8.90;75.10;;;;;;2358262;53;21447;-74
2022/11/27 09:26:57;;;;;;;4.70;2.33;;;8.90;75.00;;;;;;2595383;52;21002;-77
2022/11/27 09:29:24;;;;;;;5.05;2.50;;;8.90;74.90;;;;;;2589520;52;21036;-73
2022/11/27 09:31:50;;;;;;;5.75;2.62;;;9.00;75.00;;;;;;2363025;53;20887;-75
2022/11/27 09:34:17;;;;;;;5.75;3.03;;;9.00;75.00;;;;;;2358003;53;20969;-76
2022/11/27 09:36:45;;;;;;;4.97;2.90;;;9.10;75.10;;;;;;2370378;53;20918;-73
2022/11/27 09:39:13;;;;;;;6.97;2.70;;;9.20;75.10;;;;;;2370707;53;20954;-73
2022/11/27 09:41:45;;;;;;;6.15;3.05;;;9.20;75.20;;;;;;2370206;53;20905;-73
2022/11/27 09:44:29;;;;;;;;;;;9.20;74.90;;;;;;2374342;53;20990;-74
2022/11/27 09:46:58;;;;;;;6.87;3.05;;;9.30;74.00;;;;;;2588924;52;20049;-74
2022/11/27 09:49:27;;;;;;;5.60;3.33;;;9.30;74.50;;;;;;2370441;53;20970;-76
2022/11/27 09:53:00;;;;;;;6.95;3.72;;;9.40;74.40;;;;;;2612380;52;20907;-76
2022/11/27 09:55:48;;;;;;;5.93;3.45;;;9.40;73.90;;;;;;2370072;53;21467;-76
2022/11/27 09:58:37;;;;;;;7.62;3.87;;;9.40;74.20;;;;;;2474032;52;20997;-75
2022/11/27 10:01:17;;;;;;;4.87;2.78;;;9.50;74.60;;;;;;2370387;53;20978;-73
2022/11/27 10:03:47;;;;;;;5.62;3.00;;;9.50;74.50;;;;;;2579561;52;20942;-76
2022/11/27 10:06:27;;;;;;;6.72;2.95;;;9.60;74.70;;;;;;2370413;53;21407;-73
2022/11/27 10:10:01;;;;;;;6.05;3.15;;;9.60;74.50;;;;;;2622748;52;21734;-74
2022/11/27 10:15:06;;;;;;;4.28;2.25;;;9.60;74.30;;;;;;2365035;53;21016;-74
2022/11/27 10:17:44;;;;;;;5.93;3.00;;;9.70;74.20;;;;;;2364843;53;21070;-75
2022/11/27 10:22:52;;;;;;;6.28;2.97;;;9.80;74.50;;;;;;2443438;53;21844;-73
2022/11/27 10:25:52;;;;;;;7.90;2.62;;;9.80;74.60;;;;;;2622744;52;20926;-76
2022/11/27 10:29:51;;;;;;;4.47;2.37;;;9.90;74.70;;;;;;2622771;52;20903;-74
2022/11/27 10:32:26;;;;;;;4.87;2.50;;;9.90;74.10;;;;;;2394832;52;21045;-74
2022/11/27 10:35:20;;;;;;;6.32;3.20;;;10.00;73.70;;;;;;2370539;53;21787;-75
2022/11/27 10:37:55;;;;;;;5.68;2.85;;;10.10;73.90;;;;;;2442323;52;21966;-74
2022/11/27 10:40:36;;;;;;;5.57;2.83;;;10.10;73.70;;;;;;2369253;53;20988;-77
2022/11/27 10:43:17;;;;;;;4.97;3.12;;;10.10;73.50;;;;;;2370156;53;20894;-75
2022/11/27 10:46:12;;;;;;;4.82;2.78;;;10.10;73.30;;;;;;2594681;52;21435;-74
2022/11/27 10:48:39;;;;;;;6.70;3.80;;;10.20;73.20;;;;;;2493378;53;21084;-74
2022/11/27 10:51:18;;;;;;;6.80;3.87;;;10.20;73.40;;;;;;2354523;53;20895;-74
2022/11/27 10:53:46;;;;;;;8.13;4.30;;;10.30;73.30;;;;;;2496473;52;21400;-76
2022/11/27 10:56:43;;;;;;;9.63;4.37;;;10.30;73.40;;;;;;2402303;52;20957;-75
2022/11/27 10:59:16;;;;;;;6.12;3.50;;;10.30;73.00;;;;;;2399140;52;21832;-73
2022/11/27 11:01:46;;;;;;;7.18;3.78;;;10.40;73.30;;;;;;2362759;53;20922;-76
2022/11/27 11:04:14;;;;;;;8.68;4.90;;;10.40;73.30;;;;;;2610900;52;20953;-76
2022/11/27 11:06:57;;;;;;;8.50;5.65;;;10.40;73.30;;;;;;2370506;53;21053;-74
2022/11/27 11:09:30;;;;;;;9.35;6.45;;;10.40;73.30;;;;;;2538705;52;20942;-75
2022/11/27 11:15:30;;;;;;;8.18;4.62;;;10.40;73.20;;;;;;2369144;53;21296;-77
2022/11/27 11:17:58;;;;;;;6.82;3.53;;;10.50;72.30;;;;;;2448570;52;21089;-74
2022/11/27 11:20:24;;;;;;;7.35;4.18;;;10.50;73.00;;;;;;2374012;53;21578;-76
2022/11/27 11:22:51;;;;;;;7.07;3.50;;;10.60;73.20;;;;;;2386574;52;20938;-77
2022/11/27 11:25:18;;;;;;;5.65;2.92;;;10.60;73.30;;;;;;2417332;52;21478;-74
2022/11/27 11:27:45;;;;;;;5.85;3.03;;;10.50;73.20;;;;;;2623167;52;21423;-73
2022/11/27 11:30:25;;;;;;;5.82;2.83;;;10.60;73.30;;;;;;2370808;53;21744;-76
2022/11/27 11:33:01;;;;;;;4.97;2.70;;;10.60;72.90;;;;;;2622461;52;20899;-75
2022/11/27 11:35:34;;;;;;;5.65;2.58;;;10.70;73.10;;;;;;2369743;53;20989;-74
2022/11/27 11:38:03;;;;;;;5.03;2.47;;;10.70;73.20;;;;;;2613562;52;21490;-74
2022/11/27 11:40:33;;;;;;;4.60;2.40;;;10.70;73.20;;;;;;2370005;53;20942;-76
2022/11/27 11:43:20;;;;;;;5.97;2.72;;;10.70;73.20;;;;;;2473154;52;20926;-75
2022/11/27 11:45:47;;;;;;;5.20;2.85;;;10.80;73.80;;;;;;2622755;52;20902;-73
2022/11/27 11:48:24;;;;;;;6.03;3.00;;;10.80;73.40;;;;;;2622456;52;20922;-74
2022/11/27 11:52:30;;;;;;;5.97;3.30;;;10.80;73.30;;;;;;2370271;53;21642;-73
2022/11/27 11:55:37;;;;;;;5.75;2.40;;;10.90;72.70;;;;;;2450753;52;21459;-73
2022/11/27 11:59:34;;;;;;;4.60;2.28;;;10.90;72.90;;;;;;2370762;53;20922;-76
2022/11/27 12:05:37;;;;;;;3.90;2.15;;;11.00;72.70;;;;;;2370815;53;21001;-77
2022/11/27 12:11:10;;;;;;;4.12;2.22;;;11.10;72.70;;;;;;2370310;53;20935;-75
2022/11/27 12:17:21;;;;;;;4.50;2.67;;;11.20;72.60;;;;;;2385324;52;21930;-76
2022/11/27 12:20:16;;;;;;;3.55;1.77;;;11.20;73.20;;;;;;2347111;53;20956;-75
2022/11/27 12:24:44;;;;;;;4.28;2.15;;;11.30;73.30;;;;;;2502955;52;20884;-74
2022/11/27 12:27:46;;;;;;;3.97;2.33;;;11.30;72.40;;;;;;2343600;53;20918;-75
2022/11/27 12:30:27;;;;;;;4.18;2.30;;;11.30;72.70;;;;;;2589773;52;20897;-77
2022/11/27 12:36:29;;;;;;;4.95;2.17;;;11.30;72.80;;;;;;2342596;53;20900;-74
2022/11/27 12:42:00;;;;;;;3.90;1.83;;;11.40;72.20;;;;;;2589111;52;20925;-74
2022/11/27 12:45:36;;;;;;;4.53;1.98;;;11.40;72.00;;;;;;2343119;53;20944;-75
2022/11/27 12:48:24;;;;;;;5.00;2.37;;;11.40;72.70;;;;;;2532798;52;20988;-75
2022/11/27 12:50:55;;;;;;;6.35;2.90;;;11.40;72.40;;;;;;2342662;53;20968;-74
2022/11/27 12:55:24;;;;;;;5.85;3.17;;;11.40;72.80;;;;;;2589018;52;21054;-77
2022/11/27 12:58:03;;;;;;;4.75;2.42;;;11.40;72.50;;;;;;2342913;54;20957;-75
2022/11/27 13:00:30;;;;;;;6.90;3.55;;;11.40;72.30;;;;;;2595106;52;20945;-73
2022/11/27 13:03:27;;;;;;;7.10;3.30;;;11.40;72.60;;;;;;2341812;54;20958;-75
2022/11/27 13:06:07;;;;;;;8.15;2.87;;;11.40;72.10;;;;;;2431089;52;20941;-74
2022/11/27 13:08:49;;;;;;;5.85;3.05;;;11.40;72.40;;;;;;2341297;54;20981;-77
2022/11/27 13:11:18;;;;;;;6.45;2.95;;;11.40;72.30;;;;;;2590159;52;20932;-76
2022/11/27 13:14:30;;;;;;;5.32;2.83;;;11.40;72.60;;;;;;2343600;53;20952;-74
2022/11/27 13:17:08;;;;;;;6.53;3.40;;;11.40;71.70;;;;;;2353651;53;21394;-77
2022/11/27 13:19:46;;;;;;;7.95;4.43;;;11.40;72.20;;;;;;2345352;53;20980;-75
2022/11/27 13:22:26;;;;;;;5.25;2.97;;;11.40;72.20;;;;;;2358351;52;21039;-74
2022/11/27 13:24:54;;;;;;;5.70;3.00;;;11.40;72.40;;;;;;2343205;53;20929;-75
2022/11/27 13:27:24;;;;;;;4.97;3.10;;;11.40;72.40;;;;;;2590152;52;20925;-76
2022/11/27 13:30:08;;;;;;;4.85;2.80;;;11.40;72.60;;;;;;2361074;54;21395;-75
2022/11/27 13:32:47;;;;;;;5.75;3.17;;;11.40;72.50;;;;;;2377522;52;20959;-76
2022/11/27 13:35:35;;;;;;;5.53;2.87;;;11.40;72.40;;;;;;2346269;54;20965;-74
2022/11/27 13:38:21;;;;;;;4.50;2.50;;;11.40;72.30;;;;;;2589142;52;20948;-77
2022/11/27 13:40:50;;;;;;;4.85;2.62;;;11.40;72.30;;;;;;2343030;53;20945;-73
2022/11/27 13:43:43;;;;;;;4.82;2.25;;;11.40;72.80;;;;;;2344033;53;20977;-74
2022/11/27 13:46:26;;;;;;;5.90;3.37;;;11.40;72.40;;;;;;2343388;53;21481;-76
2022/11/27 13:49:02;;;;;;;5.20;2.65;;;11.40;72.60;;;;;;2383054;52;20992;-74
2022/11/27 13:51:36;;;;;;;4.62;2.67;;;11.40;73.40;;;;;;2342790;53;21137;-74
2022/11/27 13:54:22;;;;;;;4.50;2.42;;;11.40;72.90;;;;;;2343465;53;20933;-76
2022/11/27 13:56:53;;;;;;;5.03;2.92;;;11.40;72.50;;;;;;2343357;53;21775;-74
2022/11/27 13:59:23;;;;;;;4.90;2.90;;;11.50;72.90;;;;;;2342975;53;20918;-75
2022/11/27 14:01:57;;;;;;;5.15;2.80;;;11.50;72.90;;;;;;2343460;54;20949;-77
2022/11/27 14:04:24;;;;;;;5.20;2.90;;;11.50;72.60;;;;;;2346820;54;20945;-74
2022/11/27 14:06:57;;;;;;;5.15;2.70;;;11.50;73.40;;;;;;2353467;54;20946;-74
2022/11/27 14:11:15;;;;;;;5.05;3.03;;;11.50;72.50;;;;;;2371051;53;21416;-77
2022/11/27 14:13:44;;;;;;;4.68;2.47;;;11.50;71.40;;;;;;2505631;52;21062;-76